Vassar, Michigan
Current Conditions -  °F | °C
As of 1:45 AM on Thursday 27 Nov 2014 (Local Time) from KCFS Reporting Station
Overcast Overcast  
Wind Chill: 23°   Ceiling: 4900
Heat Index: 28°   Visibility: 10mi
Dew Point: 25°   Wind: 5mph
Humidity: 86%   Direction: 270°W
Pressure: 30.09"   Gusts: NA
Location:  43.37°N, 83.58°W
Report Text: KCFS 270645Z AUTO 27004KT 10SM SCT021 SCT026 OVC049 M02/M04 A3009 RMK AO2
Loading
Personal Weather Stations






























Interactive Weather Map New forecast layout! Learn more

10-Day Weather Forecast

Advertisements
Track Severe Weather on mobile